createdAt,value
2019-05-21T00:04:40.595Z,953.1
2019-05-21T00:14:43.941Z,953.2
2019-05-21T00:24:47.643Z,953.2
2019-05-21T00:34:51.032Z,953.4
2019-05-21T00:44:54.420Z,953.4
2019-05-21T00:54:57.769Z,953.4
2019-05-21T01:05:01.991Z,953.5
2019-05-21T01:15:05.301Z,953.6
2019-05-21T01:25:08.642Z,953.7
2019-05-21T01:35:17.927Z,953.8
2019-05-21T01:45:21.266Z,953.8
2019-05-21T01:55:24.599Z,954
2019-05-21T02:05:33.926Z,953.9
2019-05-21T02:15:37.328Z,954
2019-05-21T02:25:40.710Z,954.1
2019-05-21T02:35:55.452Z,953.9
2019-05-21T02:45:58.872Z,953.9
2019-05-21T02:56:02.209Z,953.9
2019-05-21T03:06:15.460Z,954
2019-05-21T03:16:18.928Z,954
2019-05-21T03:26:22.298Z,954.1
2019-05-21T03:36:34.925Z,954.3
2019-05-21T03:46:38.323Z,954.3
2019-05-21T03:56:41.674Z,954.4
2019-05-21T04:06:53.034Z,954.6
2019-05-21T04:16:56.563Z,954.7
2019-05-21T04:26:59.940Z,954.9
2019-05-21T04:37:17.735Z,955
2019-05-21T04:47:21.134Z,955
2019-05-21T04:57:24.578Z,955
2019-05-21T05:07:29.289Z,955
2019-05-21T05:17:32.706Z,955
2019-05-21T05:27:36.087Z,954.9
2019-05-21T05:37:49.401Z,954.9
2019-05-21T05:47:52.763Z,954.8
2019-05-21T05:57:56.080Z,954.6
2019-05-21T06:08:00.967Z,954.5
2019-05-21T06:18:04.508Z,954.3
2019-05-21T06:28:07.869Z,954.2
2019-05-21T06:38:18.782Z,954.1
2019-05-21T06:48:22.116Z,954
2019-05-21T06:58:25.445Z,953.9
2019-05-21T07:08:35.625Z,953.8
2019-05-21T07:18:41.972Z,953.7
2019-05-21T07:28:45.673Z,960.7
2019-05-21T07:38:54.736Z,960.6
2019-05-21T07:48:58.186Z,960.5
2019-05-21T07:59:02.366Z,960.6
2019-05-21T08:09:15.355Z,960.6
2019-05-21T08:19:18.688Z,960.5
2019-05-21T08:29:22.030Z,960.4
2019-05-21T08:39:29.685Z,960.3
2019-05-21T08:49:33.023Z,960.3
2019-05-21T08:59:36.420Z,960.5
2019-05-21T09:09:52.452Z,960.2
2019-05-21T09:19:55.791Z,960.1
2019-05-21T09:29:59.155Z,960.1
2019-05-21T09:40:02.947Z,960.1
2019-05-21T09:50:07.183Z,959.9
2019-05-21T10:00:10.609Z,959.8
2019-05-21T10:10:13.945Z,959.9
2019-05-21T10:20:17.276Z,955.1
2019-05-21T10:30:20.592Z,961.3
2019-05-21T10:40:23.929Z,961.1
2019-05-21T10:50:27.274Z,961
2019-05-21T11:00:30.621Z,960.9
2019-05-21T11:10:33.954Z,961
2019-05-21T11:20:37.314Z,960.9
2019-05-21T11:30:40.651Z,961
2019-05-21T11:40:50.123Z,960.9
2019-05-21T11:50:54.117Z,960.7
2019-05-21T12:00:57.522Z,960.8
2019-05-21T12:11:00.854Z,960.8
2019-05-21T12:21:04.214Z,960.8
2019-05-21T12:31:07.583Z,960.7
2019-05-21T12:41:14.408Z,960.7
2019-05-21T12:51:17.741Z,960.6
2019-05-21T13:01:21.097Z,960.6
2019-05-21T13:11:24.439Z,962.9
2019-05-21T13:21:27.776Z,961.9
2019-05-21T13:31:31.119Z,961.5
2019-05-21T13:41:34.509Z,961.4
2019-05-21T13:51:37.949Z,961.2
2019-05-21T14:01:42.089Z,961.1
2019-05-21T14:11:45.415Z,961
2019-05-21T14:21:48.782Z,960.9
2019-05-21T14:31:52.109Z,960.9
2019-05-21T14:41:55.514Z,960.8
2019-05-21T14:51:58.876Z,960.9
2019-05-21T15:02:02.209Z,961.1
2019-05-21T15:12:05.546Z,960.9
2019-05-21T15:22:08.902Z,961
2019-05-21T15:32:12.239Z,961
2019-05-21T15:42:15.602Z,961.2
2019-05-21T15:52:18.949Z,961.2
2019-05-21T16:02:22.321Z,961.4
2019-05-21T16:12:25.675Z,961.5
2019-05-21T16:22:29.196Z,961.7
2019-05-21T16:32:32.592Z,961.7
2019-05-21T16:42:35.932Z,961.8
2019-05-21T16:52:39.384Z,961.9
2019-05-21T17:02:42.739Z,961.9
2019-05-21T17:12:46.093Z,961.9
2019-05-21T17:22:49.449Z,961.9
2019-05-21T17:32:52.791Z,962.1
2019-05-21T17:42:56.110Z,962.1
2019-05-21T17:52:59.455Z,962.2
2019-05-21T18:03:02.919Z,962.3
2019-05-21T18:13:06.264Z,962.3
2019-05-21T18:23:09.579Z,962.5
2019-05-21T18:33:12.924Z,962.5
2019-05-21T18:43:16.295Z,962.6
2019-05-21T18:53:19.633Z,962.8
2019-05-21T19:03:26.450Z,962.9
2019-05-21T19:13:29.822Z,963
2019-05-21T19:23:33.140Z,963.3
2019-05-21T19:33:36.484Z,963.4
2019-05-21T19:43:39.803Z,963.5
2019-05-21T19:53:44.133Z,963.7
2019-05-21T20:03:47.471Z,963.8
2019-05-21T20:13:50.818Z,963.9
2019-05-21T20:23:54.150Z,964
2019-05-21T20:33:57.504Z,964
2019-05-21T20:44:00.835Z,964.2
2019-05-21T20:54:04.173Z,964.2
2019-05-21T21:04:07.522Z,964.3
2019-05-21T21:14:18.813Z,964.4
2019-05-21T21:24:22.150Z,964.4
2019-05-21T21:34:25.532Z,964.6
2019-05-21T21:44:34.736Z,964.6
2019-05-21T21:54:38.192Z,964.8
2019-05-21T22:04:41.629Z,964.8
2019-05-21T22:14:52.785Z,964.8
2019-05-21T22:24:56.148Z,964.9
2019-05-21T22:34:59.527Z,964.8
2019-05-21T22:45:09.448Z,964.9
2019-05-21T22:55:12.788Z,965
2019-05-21T23:05:16.120Z,964.9
2019-05-21T23:15:25.999Z,965
2019-05-21T23:25:29.335Z,965.1
2019-05-21T23:35:32.695Z,964.9
2019-05-21T23:45:36.041Z,965
2019-05-21T23:55:39.389Z,965.1
